createdAt,value
2022-12-03T00:00:41.264Z,16.90
2022-12-03T00:03:08.725Z,21.40
2022-12-03T00:05:35.720Z,22.08
2022-12-03T00:08:02.610Z,19.52
2022-12-03T00:10:29.500Z,18.23
2022-12-03T00:12:56.291Z,18.38
2022-12-03T00:15:23.229Z,19.60
2022-12-03T00:17:50.038Z,18.35
2022-12-03T00:20:22.908Z,19.85
2022-12-03T00:22:49.891Z,21.35
2022-12-03T00:25:17.680Z,21.42
2022-12-03T00:27:44.540Z,22.00
2022-12-03T00:30:12.795Z,22.30
2022-12-03T00:32:39.629Z,21.65
2022-12-03T00:35:06.832Z,20.58
2022-12-03T00:37:35.314Z,20.23
2022-12-03T00:40:03.887Z,18.60
2022-12-03T00:42:30.734Z,22.40
2022-12-03T00:44:57.682Z,19.73
2022-12-03T00:47:24.564Z,20.90
2022-12-03T00:49:51.389Z,21.70
2022-12-03T00:52:18.345Z,20.02
2022-12-03T00:54:45.507Z,20.38
2022-12-03T00:57:12.616Z,21.23
2022-12-03T00:59:39.881Z,22.52
2022-12-03T01:02:07.178Z,20.00
2022-12-03T01:04:34.103Z,19.98
2022-12-03T01:07:01.826Z,21.60
2022-12-03T01:09:28.654Z,20.15
2022-12-03T01:11:55.908Z,20.55
2022-12-03T01:14:23.048Z,21.02
2022-12-03T01:16:50.043Z,20.02
2022-12-03T01:19:17.793Z,20.75
2022-12-03T01:21:47.146Z,21.83
2022-12-03T01:24:14.460Z,22.45
2022-12-03T01:26:41.684Z,20.55
2022-12-03T01:29:08.964Z,22.73
2022-12-03T01:31:54.619Z,22.25
2022-12-03T01:34:21.965Z,22.17
2022-12-03T01:36:49.283Z,21.30
2022-12-03T01:39:16.121Z,19.52
2022-12-03T01:41:43.378Z,19.60
2022-12-03T01:44:19.278Z,21.60
2022-12-03T01:46:47.013Z,22.42
2022-12-03T01:49:19.104Z,20.40
2022-12-03T01:51:47.286Z,20.70
2022-12-03T01:54:19.734Z,21.27
2022-12-03T01:56:47.307Z,21.30
2022-12-03T01:59:18.747Z,20.67
2022-12-03T02:01:46.058Z,21.45
2022-12-03T02:04:16.195Z,22.50
2022-12-03T02:06:44.815Z,21.15
2022-12-03T02:09:13.376Z,23.23
2022-12-03T02:11:45.194Z,20.38
2022-12-03T02:14:19.581Z,20.95
2022-12-03T02:16:46.860Z,20.50
2022-12-03T02:19:26.804Z,20.25
2022-12-03T02:22:08.316Z,22.23
2022-12-03T02:24:56.332Z,19.60
2022-12-03T02:27:23.463Z,19.67
2022-12-03T02:29:50.734Z,19.38
2022-12-03T02:32:18.062Z,19.88
2022-12-03T02:34:46.164Z,21.00
2022-12-03T02:37:20.290Z,21.02
2022-12-03T02:39:51.192Z,19.50
2022-12-03T02:42:37.298Z,20.20
2022-12-03T02:45:05.638Z,20.27
2022-12-03T02:47:36.054Z,20.65
2022-12-03T02:50:03.782Z,18.45
2022-12-03T02:52:31.337Z,18.50
2022-12-03T02:54:58.776Z,18.98
2022-12-03T02:57:25.992Z,18.45
2022-12-03T02:59:52.884Z,19.27
2022-12-03T03:02:20.050Z,19.35
2022-12-03T03:04:47.341Z,19.52
2022-12-03T03:07:14.960Z,18.65
2022-12-03T03:09:42.258Z,21.77
2022-12-03T03:12:10.214Z,17.70
2022-12-03T03:14:37.159Z,18.55
2022-12-03T03:17:04.533Z,20.10
2022-12-03T03:19:31.859Z,18.33
2022-12-03T03:21:59.473Z,20.30
2022-12-03T03:24:27.042Z,19.80
2022-12-03T03:26:54.399Z,18.50
2022-12-03T03:29:21.772Z,20.70
2022-12-03T03:31:49.180Z,20.88
2022-12-03T03:34:16.988Z,20.27
2022-12-03T03:36:45.035Z,20.00
2022-12-03T03:39:12.683Z,18.10
2022-12-03T03:41:39.996Z,21.42
2022-12-03T03:44:08.079Z,20.58
2022-12-03T03:46:35.760Z,19.25
2022-12-03T03:49:04.324Z,18.88
2022-12-03T03:51:31.835Z,18.42
2022-12-03T03:53:59.135Z,18.95
2022-12-03T03:56:26.478Z,17.27
2022-12-03T03:58:53.747Z,19.77
2022-12-03T04:01:21.076Z,19.30
2022-12-03T04:03:48.458Z,19.33
2022-12-03T04:06:15.753Z,19.10
2022-12-03T04:08:43.055Z,21.08
2022-12-03T04:11:28.952Z,19.83
2022-12-03T04:13:56.163Z,19.40
2022-12-03T04:16:23.456Z,19.85
2022-12-03T04:18:50.974Z,17.35
2022-12-03T04:21:38.847Z,18.10
2022-12-03T04:24:07.321Z,17.88
2022-12-03T04:26:53.318Z,18.50
2022-12-03T04:29:21.055Z,19.60
2022-12-03T04:32:07.323Z,18.90
2022-12-03T04:34:53.385Z,19.60
2022-12-03T04:37:20.951Z,18.55
2022-12-03T04:39:48.515Z,18.58
2022-12-03T04:42:15.747Z,19.30
2022-12-03T04:44:43.131Z,19.27
2022-12-03T04:47:13.040Z,18.83
2022-12-03T04:49:45.741Z,19.58
2022-12-03T04:52:14.056Z,18.13
2022-12-03T04:54:41.554Z,19.10
2022-12-03T04:57:09.198Z,19.77
2022-12-03T04:59:36.984Z,17.50
2022-12-03T05:02:05.525Z,19.98
2022-12-03T05:04:32.838Z,17.95
2022-12-03T05:07:00.123Z,19.73
2022-12-03T05:09:27.468Z,18.15
2022-12-03T05:11:54.709Z,19.50
2022-12-03T05:14:21.965Z,18.00
2022-12-03T05:16:49.301Z,19.33
2022-12-03T05:19:16.538Z,18.95
2022-12-03T05:21:43.776Z,19.90
2022-12-03T05:24:10.994Z,18.83
2022-12-03T05:26:38.229Z,20.00
2022-12-03T05:29:05.645Z,20.00
2022-12-03T05:31:32.819Z,18.70
2022-12-03T05:34:00.164Z,21.00
2022-12-03T05:36:27.540Z,18.95
2022-12-03T05:38:54.742Z,19.02
2022-12-03T05:41:48.072Z,19.50
2022-12-03T05:44:20.336Z,19.17
2022-12-03T05:46:47.977Z,17.83
2022-12-03T05:49:15.236Z,19.00
2022-12-03T05:51:43.160Z,20.90
2022-12-03T05:54:10.404Z,22.08
2022-12-03T05:56:37.616Z,20.20
2022-12-03T05:59:04.860Z,20.08
2022-12-03T06:01:32.085Z,18.10
2022-12-03T06:03:59.369Z,17.17
2022-12-03T06:06:26.669Z,19.48
2022-12-03T06:08:53.922Z,20.55
2022-12-03T06:11:21.224Z,27.02
2022-12-03T06:13:48.407Z,19.80
2022-12-03T06:16:15.701Z,18.27
2022-12-03T06:18:42.977Z,19.25
2022-12-03T06:21:10.201Z,17.05
2022-12-03T06:23:37.720Z,17.95
2022-12-03T06:26:04.595Z,18.65
2022-12-03T06:28:31.461Z,17.50
2022-12-03T06:30:58.360Z,19.10
2022-12-03T06:33:25.648Z,19.52
2022-12-03T06:35:53.081Z,19.23
2022-12-03T06:38:20.345Z,17.08
2022-12-03T06:40:47.543Z,18.80
2022-12-03T06:43:14.855Z,18.40
2022-12-03T06:45:47.394Z,19.73
2022-12-03T06:48:14.795Z,18.73
2022-12-03T06:50:41.999Z,17.55
2022-12-03T06:53:09.255Z,20.50
2022-12-03T06:55:36.391Z,19.25
2022-12-03T06:58:03.636Z,20.55
2022-12-03T07:00:30.903Z,18.23
2022-12-03T07:02:58.137Z,17.70
2022-12-03T07:05:25.412Z,18.05
2022-12-03T07:07:55.331Z,17.85
2022-12-03T07:10:22.821Z,21.02
2022-12-03T07:12:49.870Z,19.48
2022-12-03T07:15:16.836Z,18.45
2022-12-03T07:17:44.059Z,17.88
2022-12-03T07:20:11.565Z,19.40
2022-12-03T07:22:38.457Z,17.33
2022-12-03T07:25:06.129Z,18.52
2022-12-03T07:27:33.353Z,18.42
2022-12-03T07:30:00.248Z,20.08
2022-12-03T07:32:27.065Z,18.88
2022-12-03T07:34:54.074Z,19.02
2022-12-03T07:37:23.278Z,15.95
2022-12-03T07:39:52.465Z,19.80
2022-12-03T07:42:19.483Z,18.77
2022-12-03T07:44:46.690Z,17.42
2022-12-03T07:47:13.967Z,17.20
2022-12-03T07:49:41.186Z,18.77
2022-12-03T07:52:08.563Z,22.98
2022-12-03T07:54:35.929Z,17.15
2022-12-03T07:57:02.986Z,18.55
2022-12-03T07:59:30.304Z,18.65
2022-12-03T08:01:57.736Z,24.42
2022-12-03T08:04:24.991Z,22.00
2022-12-03T08:06:52.209Z,18.98
2022-12-03T08:09:19.182Z,19.85
2022-12-03T08:11:48.629Z,20.52
2022-12-03T08:14:18.047Z,18.35
2022-12-03T08:16:46.888Z,18.63
2022-12-03T08:19:16.828Z,18.60
2022-12-03T08:21:44.433Z,19.20
2022-12-03T08:24:14.007Z,19.05
2022-12-03T08:26:41.403Z,19.85
2022-12-03T08:29:13.632Z,20.48
2022-12-03T08:31:41.844Z,20.98
2022-12-03T08:34:20.949Z,17.73
2022-12-03T08:36:50.992Z,20.10
2022-12-03T08:39:29.491Z,20.25
2022-12-03T08:42:37.255Z,19.85
2022-12-03T08:45:28.972Z,18.20
2022-12-03T08:47:57.001Z,20.88
2022-12-03T08:50:32.267Z,19.33
2022-12-03T08:53:11.303Z,22.05
2022-12-03T08:55:42.568Z,18.75
2022-12-03T08:58:24.587Z,20.30
2022-12-03T09:00:59.971Z,19.98
2022-12-03T09:03:31.874Z,18.00
2022-12-03T09:05:59.118Z,19.90
2022-12-03T09:08:26.037Z,21.38
2022-12-03T09:10:53.141Z,19.58
2022-12-03T09:13:20.362Z,20.55
2022-12-03T09:15:47.238Z,19.33
2022-12-03T09:18:16.812Z,21.40
2022-12-03T09:20:43.646Z,20.75
2022-12-03T09:23:10.917Z,18.27
2022-12-03T09:25:37.773Z,20.10
2022-12-03T09:28:04.835Z,20.25
2022-12-03T09:30:31.652Z,20.20
2022-12-03T09:33:00.190Z,19.83
2022-12-03T09:35:27.742Z,18.80
2022-12-03T09:37:55.005Z,20.13
2022-12-03T09:40:22.585Z,18.85
2022-12-03T09:42:50.778Z,18.55
2022-12-03T09:45:18.264Z,19.40
2022-12-03T09:47:49.031Z,18.23
2022-12-03T09:50:34.220Z,18.60
2022-12-03T09:53:03.897Z,18.63
2022-12-03T09:55:31.288Z,21.20
2022-12-03T09:57:58.561Z,20.02
2022-12-03T10:00:27.843Z,21.65
2022-12-03T10:02:58.211Z,21.00
2022-12-03T10:05:25.675Z,20.40
2022-12-03T10:07:53.486Z,21.38
2022-12-03T10:10:23.919Z,18.70
2022-12-03T10:12:51.974Z,18.90
2022-12-03T10:15:22.920Z,19.25
2022-12-03T10:17:52.174Z,19.02
2022-12-03T10:20:21.312Z,21.13
2022-12-03T10:22:51.291Z,18.83
2022-12-03T10:25:21.275Z,20.08
2022-12-03T10:27:58.796Z,19.92
2022-12-03T10:30:28.613Z,18.98
2022-12-03T10:32:57.803Z,20.17
2022-12-03T10:35:37.958Z,20.30
2022-12-03T10:38:22.496Z,20.02
2022-12-03T10:40:49.730Z,19.40
2022-12-03T10:43:19.704Z,18.90
2022-12-03T10:46:04.462Z,17.75
2022-12-03T10:48:31.681Z,18.77
2022-12-03T10:51:05.283Z,18.38
2022-12-03T10:53:34.680Z,20.57
2022-12-03T10:56:04.806Z,20.60
2022-12-03T10:58:36.084Z,21.80
2022-12-03T11:01:10.816Z,20.52
2022-12-03T11:03:37.743Z,19.92
2022-12-03T11:06:04.924Z,20.77
2022-12-03T11:08:35.270Z,22.75
2022-12-03T11:11:08.291Z,21.55
2022-12-03T11:13:35.476Z,22.48
2022-12-03T11:16:05.610Z,20.15
2022-12-03T11:18:38.216Z,21.25
2022-12-03T11:21:12.563Z,20.50
2022-12-03T11:24:03.760Z,21.85
2022-12-03T11:26:30.559Z,21.60
2022-12-03T11:28:58.530Z,21.08
2022-12-03T11:31:47.357Z,22.90
2022-12-03T11:34:23.453Z,23.27
2022-12-03T11:37:09.122Z,23.75
2022-12-03T11:39:51.135Z,20.02
2022-12-03T11:42:27.059Z,22.35
2022-12-03T11:45:05.636Z,22.55
2022-12-03T11:47:45.548Z,21.10
2022-12-03T11:50:22.795Z,22.58
2022-12-03T11:52:55.252Z,22.27
2022-12-03T11:55:48.725Z,22.35
2022-12-03T11:58:25.650Z,20.60
2022-12-03T12:00:55.328Z,20.00
2022-12-03T12:03:24.988Z,19.75
2022-12-03T12:06:12.624Z,22.17
2022-12-03T12:08:42.568Z,23.48
2022-12-03T12:11:19.555Z,22.58
2022-12-03T12:13:51.183Z,21.95
2022-12-03T12:16:50.849Z,24.25
2022-12-03T12:19:41.533Z,22.70
2022-12-03T12:22:19.079Z,22.05
2022-12-03T12:24:51.736Z,22.63
2022-12-03T12:27:20.780Z,23.23
2022-12-03T12:29:56.776Z,23.90
2022-12-03T12:32:53.894Z,20.20
2022-12-03T12:35:27.645Z,19.98
2022-12-03T12:38:00.168Z,21.48
2022-12-03T12:40:32.465Z,22.45
2022-12-03T12:43:14.173Z,23.67
2022-12-03T12:45:44.088Z,23.45
2022-12-03T12:48:26.738Z,24.25
2022-12-03T12:50:58.676Z,25.65
2022-12-03T12:53:33.974Z,24.20
2022-12-03T12:56:02.071Z,24.15
2022-12-03T12:58:32.342Z,24.20
2022-12-03T13:01:01.441Z,22.90
2022-12-03T13:03:33.981Z,23.63
2022-12-03T13:06:02.419Z,25.70
2022-12-03T13:08:32.907Z,23.42
2022-12-03T13:11:03.515Z,23.90
2022-12-03T13:13:44.248Z,22.15
2022-12-03T13:16:30.618Z,23.63
2022-12-03T13:18:59.275Z,21.80
2022-12-03T13:21:40.572Z,24.15
2022-12-03T13:24:29.404Z,21.60
2022-12-03T13:26:56.778Z,21.98
2022-12-03T13:29:24.139Z,24.67
2022-12-03T13:31:54.532Z,22.38
2022-12-03T13:34:25.293Z,24.70
2022-12-03T13:36:58.200Z,21.20
2022-12-03T13:39:25.550Z,22.25
2022-12-03T13:42:11.808Z,22.10
2022-12-03T13:44:45.566Z,24.92
2022-12-03T13:47:15.904Z,24.75
2022-12-03T13:49:49.263Z,21.05
2022-12-03T13:52:19.537Z,20.63
2022-12-03T13:54:48.954Z,19.90
2022-12-03T13:57:15.752Z,21.67
2022-12-03T13:59:42.583Z,20.25
2022-12-03T14:02:10.103Z,20.05
2022-12-03T14:04:36.987Z,21.33
2022-12-03T14:07:03.935Z,19.42
2022-12-03T14:09:30.957Z,19.42
2022-12-03T14:12:17.032Z,20.25
2022-12-03T14:14:43.937Z,19.58
2022-12-03T14:17:11.757Z,21.33
2022-12-03T14:19:38.752Z,20.70
2022-12-03T14:22:08.049Z,21.65
2022-12-03T14:24:34.929Z,23.23
2022-12-03T14:27:02.414Z,24.95
2022-12-03T14:29:29.478Z,22.65
2022-12-03T14:31:56.339Z,21.85
2022-12-03T14:34:23.253Z,23.40
2022-12-03T14:36:50.150Z,23.23
2022-12-03T14:39:17.046Z,25.63
2022-12-03T14:42:02.429Z,25.27
2022-12-03T14:44:29.275Z,25.70
2022-12-03T14:46:57.522Z,23.40
2022-12-03T14:49:24.941Z,24.65
2022-12-03T14:51:52.263Z,24.38
2022-12-03T14:54:19.224Z,22.25
2022-12-03T14:56:46.128Z,22.50
2022-12-03T14:59:12.941Z,25.25
2022-12-03T15:01:39.917Z,23.45
2022-12-03T15:04:06.808Z,24.48
2022-12-03T15:06:33.704Z,22.13
2022-12-03T15:09:00.592Z,23.45
2022-12-03T15:11:27.539Z,24.73
2022-12-03T15:13:54.438Z,25.52
2022-12-03T15:16:21.407Z,23.35
2022-12-03T15:18:48.228Z,23.75
2022-12-03T15:21:15.137Z,24.30
2022-12-03T15:23:42.193Z,25.20
2022-12-03T15:26:09.498Z,23.75
2022-12-03T15:28:36.473Z,24.17
2022-12-03T15:31:03.494Z,23.30
2022-12-03T15:33:30.441Z,23.52
2022-12-03T15:35:57.602Z,25.00
2022-12-03T15:38:24.512Z,24.75
2022-12-03T15:40:51.809Z,26.95
2022-12-03T15:43:18.705Z,24.90
2022-12-03T15:45:45.813Z,25.98
2022-12-03T15:48:13.874Z,23.80
2022-12-03T15:50:41.284Z,24.13
2022-12-03T15:53:08.508Z,26.98
2022-12-03T15:55:35.753Z,27.00
2022-12-03T15:58:02.666Z,25.23
2022-12-03T16:00:29.541Z,25.38
2022-12-03T16:02:56.401Z,27.05
2022-12-03T16:05:23.656Z,24.15
2022-12-03T16:07:50.550Z,25.75
2022-12-03T16:10:21.495Z,25.25
2022-12-03T16:12:48.872Z,24.67
2022-12-03T16:15:15.882Z,28.50
2022-12-03T16:17:42.775Z,29.75
2022-12-03T16:20:09.879Z,39.88
2022-12-03T16:22:36.714Z,45.20
2022-12-03T16:25:05.212Z,52.42
2022-12-03T16:27:32.046Z,67.78
2022-12-03T16:29:59.013Z,65.88
2022-12-03T16:32:25.865Z,65.72
2022-12-03T16:34:52.706Z,67.47
2022-12-03T16:37:19.522Z,62.97
2022-12-03T16:39:46.367Z,62.15
2022-12-03T16:42:17.284Z,58.95
2022-12-03T16:44:59.536Z,58.35
2022-12-03T16:47:32.108Z,57.35
2022-12-03T16:50:01.294Z,49.28
2022-12-03T16:52:28.169Z,46.17
2022-12-03T16:54:54.980Z,42.78
2022-12-03T16:57:21.866Z,41.13
2022-12-03T16:59:48.701Z,37.38
2022-12-03T17:02:15.669Z,37.17
2022-12-03T17:04:42.504Z,35.78
2022-12-03T17:07:09.386Z,31.83
2022-12-03T17:09:36.326Z,32.75
2022-12-03T17:12:03.313Z,30.00
2022-12-03T17:14:33.468Z,27.85
2022-12-03T17:17:00.655Z,29.55
2022-12-03T17:19:27.567Z,29.17
2022-12-03T17:21:54.459Z,29.55
2022-12-03T17:24:21.670Z,25.90
2022-12-03T17:26:48.796Z,29.92
2022-12-03T17:29:15.701Z,31.33
2022-12-03T17:31:43.051Z,31.85
2022-12-03T17:34:10.260Z,28.30
2022-12-03T17:36:37.099Z,28.88
2022-12-03T17:39:03.990Z,30.30
2022-12-03T17:41:31.034Z,29.55
2022-12-03T17:43:57.903Z,29.30
2022-12-03T17:46:24.935Z,29.80
2022-12-03T17:48:51.826Z,28.35
2022-12-03T17:51:20.937Z,28.15
2022-12-03T17:53:48.170Z,30.17
2022-12-03T17:56:15.118Z,32.90
2022-12-03T17:58:42.380Z,28.92
2022-12-03T18:01:10.556Z,28.23
2022-12-03T18:03:37.911Z,28.33
2022-12-03T18:06:05.001Z,29.17
2022-12-03T18:08:31.932Z,27.65
2022-12-03T18:10:58.828Z,27.55
2022-12-03T18:13:26.139Z,26.85
2022-12-03T18:15:53.034Z,26.77
2022-12-03T18:18:19.964Z,29.10
2022-12-03T18:20:47.270Z,27.73
2022-12-03T18:23:14.223Z,28.77
2022-12-03T18:25:41.945Z,30.15
2022-12-03T18:28:09.190Z,28.63
2022-12-03T18:30:36.617Z,27.42
2022-12-03T18:33:03.494Z,28.45
2022-12-03T18:35:30.595Z,27.90
2022-12-03T18:37:57.906Z,28.30
2022-12-03T18:40:27.268Z,29.33
2022-12-03T18:42:55.489Z,28.90
2022-12-03T18:45:22.346Z,27.90
2022-12-03T18:47:49.377Z,30.63
2022-12-03T18:50:16.464Z,28.27
2022-12-03T18:52:43.390Z,28.33
2022-12-03T18:55:18.740Z,31.77
2022-12-03T18:57:46.051Z,27.90
2022-12-03T19:00:14.062Z,29.38
2022-12-03T19:05:28.602Z,27.98
2022-12-03T19:07:56.589Z,28.52
2022-12-03T19:10:24.248Z,27.63
2022-12-03T19:12:51.234Z,27.38
2022-12-03T19:15:18.332Z,27.58
2022-12-03T19:17:51.801Z,28.25
2022-12-03T19:20:18.688Z,29.02
2022-12-03T19:22:45.538Z,27.63
2022-12-03T19:25:12.521Z,27.90
2022-12-03T19:27:39.454Z,27.58
2022-12-03T19:30:06.929Z,27.15
2022-12-03T19:32:34.939Z,28.77
2022-12-03T19:35:05.301Z,27.75
2022-12-03T19:37:35.410Z,26.60
2022-12-03T19:40:02.525Z,28.00
2022-12-03T19:42:31.245Z,28.70
2022-12-03T19:44:58.168Z,29.33
2022-12-03T19:47:25.616Z,26.27
2022-12-03T19:49:56.108Z,26.10
2022-12-03T19:52:23.694Z,29.65
2022-12-03T19:54:50.683Z,29.75
2022-12-03T19:57:23.123Z,26.17
2022-12-03T19:59:50.420Z,26.90
2022-12-03T20:02:17.469Z,27.10
2022-12-03T20:04:44.601Z,27.13
2022-12-03T20:07:11.469Z,29.70
2022-12-03T20:09:38.281Z,28.63
2022-12-03T20:12:05.246Z,27.20
2022-12-03T20:14:32.074Z,28.83
2022-12-03T20:16:58.983Z,28.63
2022-12-03T20:19:25.863Z,24.63
2022-12-03T20:21:55.265Z,27.60
2022-12-03T20:24:24.500Z,28.98
2022-12-03T20:26:51.370Z,29.27
2022-12-03T20:29:18.238Z,26.70
2022-12-03T20:31:45.178Z,27.20
2022-12-03T20:34:12.359Z,28.10
2022-12-03T20:36:40.038Z,27.73
2022-12-03T20:39:08.097Z,27.17
2022-12-03T20:41:36.236Z,29.92
2022-12-03T20:44:03.711Z,26.15
2022-12-03T20:46:31.743Z,30.05
2022-12-03T20:48:59.052Z,29.13
2022-12-03T20:51:28.633Z,28.63
2022-12-03T20:53:56.820Z,28.70
2022-12-03T20:56:31.406Z,30.33
2022-12-03T20:59:07.638Z,25.75
2022-12-03T21:01:36.245Z,31.10
2022-12-03T21:04:04.836Z,27.58
2022-12-03T21:06:34.172Z,27.92
2022-12-03T21:09:01.242Z,27.70
2022-12-03T21:11:30.872Z,29.52
2022-12-03T21:13:58.734Z,28.63
2022-12-03T21:16:52.131Z,28.88
2022-12-03T21:19:17.587Z,27.90
2022-12-03T21:21:44.498Z,29.08
2022-12-03T21:24:12.568Z,28.70
2022-12-03T21:26:39.518Z,29.30
2022-12-03T21:29:06.671Z,28.92
2022-12-03T21:31:35.532Z,30.38
2022-12-03T21:34:03.138Z,28.15
2022-12-03T21:36:30.007Z,30.42
2022-12-03T21:38:56.960Z,28.35
2022-12-03T21:41:23.801Z,30.83
2022-12-03T21:43:50.854Z,28.92
2022-12-03T21:47:09.454Z,29.90
2022-12-03T21:49:04.784Z,31.25
2022-12-03T21:51:32.041Z,31.65
2022-12-03T21:53:58.942Z,28.63
2022-12-03T21:56:26.342Z,30.52
2022-12-03T21:58:53.195Z,30.90
2022-12-03T22:01:23.162Z,28.25
2022-12-03T22:03:50.787Z,30.10
2022-12-03T22:06:18.186Z,30.55
2022-12-03T22:08:45.399Z,30.30
2022-12-03T22:11:15.355Z,28.85
2022-12-03T22:13:42.744Z,28.58
2022-12-03T22:16:15.823Z,31.27
2022-12-03T22:18:43.515Z,32.80
2022-12-03T22:21:13.281Z,27.73
2022-12-03T22:23:40.735Z,29.98
2022-12-03T22:26:11.127Z,28.83
2022-12-03T22:28:38.013Z,28.75
2022-12-03T22:31:09.338Z,29.42
2022-12-03T22:33:37.099Z,31.27
2022-12-03T22:36:14.704Z,27.88
2022-12-03T22:38:45.143Z,27.80
2022-12-03T22:41:13.625Z,27.30
2022-12-03T22:43:40.744Z,29.52
2022-12-03T22:46:12.913Z,27.63
2022-12-03T22:48:41.865Z,26.73
2022-12-03T22:51:21.191Z,29.92
2022-12-03T22:53:53.285Z,31.58
2022-12-03T22:56:20.228Z,29.45
2022-12-03T22:58:47.063Z,28.55
2022-12-03T23:01:25.849Z,28.90
2022-12-03T23:03:52.983Z,29.40
2022-12-03T23:06:21.086Z,28.40
2022-12-03T23:08:48.357Z,28.48
2022-12-03T23:11:15.773Z,29.75
2022-12-03T23:13:42.727Z,29.80
2022-12-03T23:16:15.307Z,28.13
2022-12-03T23:18:42.653Z,27.67
2022-12-03T23:21:09.516Z,26.40
2022-12-03T23:23:36.469Z,29.77
2022-12-03T23:26:08.868Z,29.25
2022-12-03T23:28:37.305Z,28.88
2022-12-03T23:31:05.387Z,29.73
2022-12-03T23:33:37.994Z,26.38
2022-12-03T23:36:08.844Z,29.48
2022-12-03T23:38:35.693Z,31.67
2022-12-03T23:41:11.230Z,28.90
2022-12-03T23:43:38.690Z,28.40
2022-12-03T23:46:12.033Z,28.05
2022-12-03T23:48:39.499Z,27.30
2022-12-03T23:51:11.514Z,28.60
2022-12-03T23:53:40.227Z,29.10
2022-12-03T23:56:13.824Z,28.15
2022-12-03T23:58:40.944Z,29.40
